KHLR/HLR METAR and TAF weather

Enter ICAO airport designator
Station Type Date Time Source
KHLR METAR 2019/08/22 04:58 UTC NOAA

KHLR 220458Z AUTO 17008KT 10SM CLR 29/19 A2993 RMK AO2 SLP121 T02860190


Station Type Date Time Source
KHLR Decoded METAR 2019/08/22 04:58 UTC NOAA

Station name not available
Aug 22, 2019 - 12:58 AM EDT / 2019.08.22 0458 UTC
Wind: from the S (170 degrees) at 9 MPH (8 KT):0
Visibility: 10 mile(s):0
Sky conditions: clear
Temperature: 83.5 F (28.6 C)
Dew Point: 66.2 F (19.0 C)
Relative Humidity: 56%
Pressure (altimeter): 29.93 in. Hg (1013 hPa)
ob: KHLR 220458Z AUTO 17008KT 10SM CLR 29/19 A2993 RMK AO2 SLP121 T02860190
cycle: 5

Station Type Date Time Source
KHLR TAF UTC NOAA

Error!

Example: see airport list